< < Back
Terminal Aerodrome Forecast


Current Version              Previous Versions:   1  2  3  4  5  6  7  8  9  

Terminal Aerodrome Forecast

468
FTUS42 KMLB 290527
TAFDAB
TAF
KDAB 290527Z 2906/3006 00000KT P6SM FEW019 SCT045 SCT200
     FM291400 27007KT P6SM SCT030
     FM291800 04009KT P6SM SCT040=

Latest METAR

425
SAUS80 KWBC 300500
MTRDAB
METAR KDAB 300453Z 20004KT 10SM FEW035 FEW095 SCT200 22/20 A3003 RMK AO2
SLP168 FRQ LTGIC DSNT SE CB DSNT SE T02170200 403170200


USA.gov is the U.S. government's official web portal to all federal, state and local government web resources and services.